sensor_id;sensor_type;location;lat;lon;timestamp;P1;durP1;ratioP1;P2;durP2;ratioP2
81884;SDS011;71340;55.154;30.266;2023-08-31T00:02:05;14.07;;;8.60;;
81884;SDS011;71340;55.154;30.266;2023-08-31T00:04:31;14.25;;;8.40;;
81884;SDS011;71340;55.154;30.266;2023-08-31T00:06:56;12.70;;;8.00;;
81884;SDS011;71340;55.154;30.266;2023-08-31T00:09:22;12.40;;;7.83;;
81884;SDS011;71340;55.154;30.266;2023-08-31T00:11:51;17.25;;;7.97;;
81884;SDS011;71340;55.154;30.266;2023-08-31T00:14:16;13.57;;;8.53;;
81884;SDS011;71340;55.154;30.266;2023-08-31T00:16:42;11.57;;;8.13;;
81884;SDS011;71340;55.154;30.266;2023-08-31T00:19:07;14.37;;;8.70;;
81884;SDS011;71340;55.154;30.266;2023-08-31T00:21:33;11.77;;;8.07;;
81884;SDS011;71340;55.154;30.266;2023-08-31T00:23:58;13.57;;;8.90;;
81884;SDS011;71340;55.154;30.266;2023-08-31T00:26:24;12.57;;;8.32;;
81884;SDS011;71340;55.154;30.266;2023-08-31T00:28:49;13.77;;;8.47;;
81884;SDS011;71340;55.154;30.266;2023-08-31T00:31:15;14.93;;;8.47;;
81884;SDS011;71340;55.154;30.266;2023-08-31T00:33:40;16.23;;;9.10;;
81884;SDS011;71340;55.154;30.266;2023-08-31T00:36:06;16.10;;;9.43;;
81884;SDS011;71340;55.154;30.266;2023-08-31T00:38:31;11.47;;;9.20;;
81884;SDS011;71340;55.154;30.266;2023-08-31T00:40:56;15.63;;;9.53;;
81884;SDS011;71340;55.154;30.266;2023-08-31T00:43:22;17.90;;;9.57;;
81884;SDS011;71340;55.154;30.266;2023-08-31T00:45:48;14.60;;;10.23;;
81884;SDS011;71340;55.154;30.266;2023-08-31T00:48:15;13.87;;;10.67;;
81884;SDS011;71340;55.154;30.266;2023-08-31T00:50:47;16.20;;;9.85;;
81884;SDS011;71340;55.154;30.266;2023-08-31T00:53:14;18.77;;;10.02;;
81884;SDS011;71340;55.154;30.266;2023-08-31T00:55:41;16.43;;;10.70;;
81884;SDS011;71340;55.154;30.266;2023-08-31T00:58:07;19.30;;;10.43;;
81884;SDS011;71340;55.154;30.266;2023-08-31T01:00:36;15.23;;;10.43;;
81884;SDS011;71340;55.154;30.266;2023-08-31T01:03:12;19.25;;;11.35;;
81884;SDS011;71340;55.154;30.266;2023-08-31T01:05:46;20.20;;;11.65;;
81884;SDS011;71340;55.154;30.266;2023-08-31T01:08:19;16.40;;;11.13;;
81884;SDS011;71340;55.154;30.266;2023-08-31T01:13:56;21.10;;;12.85;;
81884;SDS011;71340;55.154;30.266;2023-08-31T01:16:29;18.73;;;12.90;;
81884;SDS011;71340;55.154;30.266;2023-08-31T01:18:58;17.92;;;12.68;;
81884;SDS011;71340;55.154;30.266;2023-08-31T01:21:30;22.30;;;13.15;;
81884;SDS011;71340;55.154;30.266;2023-08-31T01:24:02;17.47;;;12.70;;
81884;SDS011;71340;55.154;30.266;2023-08-31T01:26:29;18.65;;;13.50;;
81884;SDS011;71340;55.154;30.266;2023-08-31T01:28:55;22.40;;;14.98;;
81884;SDS011;71340;55.154;30.266;2023-08-31T01:31:21;23.83;;;15.20;;
81884;SDS011;71340;55.154;30.266;2023-08-31T01:37:00;21.27;;;16.17;;
81884;SDS011;71340;55.154;30.266;2023-08-31T01:39:33;21.98;;;15.38;;
81884;SDS011;71340;55.154;30.266;2023-08-31T01:42:04;23.58;;;15.70;;
81884;SDS011;71340;55.154;30.266;2023-08-31T01:44:31;24.63;;;15.35;;
81884;SDS011;71340;55.154;30.266;2023-08-31T01:47:02;21.83;;;16.13;;
81884;SDS011;71340;55.154;30.266;2023-08-31T01:49:38;22.20;;;16.65;;
81884;SDS011;71340;55.154;30.266;2023-08-31T01:52:04;23.13;;;15.93;;
81884;SDS011;71340;55.154;30.266;2023-08-31T01:54:30;22.70;;;16.60;;
81884;SDS011;71340;55.154;30.266;2023-08-31T01:56:56;21.17;;;17.27;;
81884;SDS011;71340;55.154;30.266;2023-08-31T01:59:22;25.67;;;17.70;;
81884;SDS011;71340;55.154;30.266;2023-08-31T02:01:47;25.13;;;19.10;;
81884;SDS011;71340;55.154;30.266;2023-08-31T02:04:12;28.10;;;17.77;;
81884;SDS011;71340;55.154;30.266;2023-08-31T02:06:38;23.73;;;17.52;;
81884;SDS011;71340;55.154;30.266;2023-08-31T02:09:03;26.27;;;17.80;;
81884;SDS011;71340;55.154;30.266;2023-08-31T02:11:30;24.87;;;17.80;;
81884;SDS011;71340;55.154;30.266;2023-08-31T02:13:56;27.67;;;18.52;;
81884;SDS011;71340;55.154;30.266;2023-08-31T02:16:22;33.65;;;19.35;;
81884;SDS011;71340;55.154;30.266;2023-08-31T02:18:48;29.37;;;20.37;;
81884;SDS011;71340;55.154;30.266;2023-08-31T02:21:13;28.57;;;19.70;;
81884;SDS011;71340;55.154;30.266;2023-08-31T02:23:38;29.47;;;20.70;;
81884;SDS011;71340;55.154;30.266;2023-08-31T02:26:03;28.83;;;20.20;;
81884;SDS011;71340;55.154;30.266;2023-08-31T02:28:29;32.10;;;19.47;;
81884;SDS011;71340;55.154;30.266;2023-08-31T02:31:01;28.17;;;20.20;;
81884;SDS011;71340;55.154;30.266;2023-08-31T02:33:27;26.63;;;19.27;;
81884;SDS011;71340;55.154;30.266;2023-08-31T02:35:53;27.60;;;20.57;;
81884;SDS011;71340;55.154;30.266;2023-08-31T02:38:19;29.90;;;20.37;;
81884;SDS011;71340;55.154;30.266;2023-08-31T02:40:47;25.97;;;18.67;;
81884;SDS011;71340;55.154;30.266;2023-08-31T02:43:13;29.63;;;21.23;;
81884;SDS011;71340;55.154;30.266;2023-08-31T02:45:39;29.38;;;21.73;;
81884;SDS011;71340;55.154;30.266;2023-08-31T02:48:07;31.50;;;20.40;;
81884;SDS011;71340;55.154;30.266;2023-08-31T02:50:36;26.30;;;20.70;;
81884;SDS011;71340;55.154;30.266;2023-08-31T02:53:01;34.40;;;22.83;;
81884;SDS011;71340;55.154;30.266;2023-08-31T02:55:27;31.63;;;21.70;;
81884;SDS011;71340;55.154;30.266;2023-08-31T02:57:52;33.17;;;21.75;;
81884;SDS011;71340;55.154;30.266;2023-08-31T03:00:18;26.80;;;20.17;;
81884;SDS011;71340;55.154;30.266;2023-08-31T03:02:47;32.72;;;22.15;;
81884;SDS011;71340;55.154;30.266;2023-08-31T03:05:18;28.83;;;21.85;;
81884;SDS011;71340;55.154;30.266;2023-08-31T03:07:44;30.97;;;22.10;;
81884;SDS011;71340;55.154;30.266;2023-08-31T03:10:10;33.22;;;22.00;;
81884;SDS011;71340;55.154;30.266;2023-08-31T03:12:37;32.37;;;21.73;;
81884;SDS011;71340;55.154;30.266;2023-08-31T03:15:02;25.60;;;20.20;;
81884;SDS011;71340;55.154;30.266;2023-08-31T03:17:28;29.00;;;21.53;;
81884;SDS011;71340;55.154;30.266;2023-08-31T03:19:53;32.70;;;21.57;;
81884;SDS011;71340;55.154;30.266;2023-08-31T03:22:18;26.50;;;21.23;;
81884;SDS011;71340;55.154;30.266;2023-08-31T03:24:44;35.60;;;22.10;;
81884;SDS011;71340;55.154;30.266;2023-08-31T03:27:09;29.88;;;21.67;;
81884;SDS011;71340;55.154;30.266;2023-08-31T03:29:35;32.87;;;21.57;;
81884;SDS011;71340;55.154;30.266;2023-08-31T03:32:00;29.23;;;21.03;;
81884;SDS011;71340;55.154;30.266;2023-08-31T03:34:30;31.08;;;22.30;;
81884;SDS011;71340;55.154;30.266;2023-08-31T03:36:56;31.47;;;21.93;;
81884;SDS011;71340;55.154;30.266;2023-08-31T03:39:21;31.35;;;21.85;;
81884;SDS011;71340;55.154;30.266;2023-08-31T03:41:46;38.40;;;22.67;;
81884;SDS011;71340;55.154;30.266;2023-08-31T03:44:12;31.97;;;22.77;;
81884;SDS011;71340;55.154;30.266;2023-08-31T03:46:37;29.70;;;22.23;;
81884;SDS011;71340;55.154;30.266;2023-08-31T03:49:02;32.20;;;22.15;;
81884;SDS011;71340;55.154;30.266;2023-08-31T03:51:28;31.37;;;23.10;;
81884;SDS011;71340;55.154;30.266;2023-08-31T03:53:54;34.57;;;22.07;;
81884;SDS011;71340;55.154;30.266;2023-08-31T03:56:21;30.27;;;22.92;;
81884;SDS011;71340;55.154;30.266;2023-08-31T03:58:47;26.63;;;21.37;;
81884;SDS011;71340;55.154;30.266;2023-08-31T04:01:12;36.08;;;22.27;;
81884;SDS011;71340;55.154;30.266;2023-08-31T04:03:39;30.27;;;23.07;;
81884;SDS011;71340;55.154;30.266;2023-08-31T04:06:04;32.22;;;22.50;;
81884;SDS011;71340;55.154;30.266;2023-08-31T04:08:30;31.58;;;22.02;;
81884;SDS011;71340;55.154;30.266;2023-08-31T04:10:55;28.23;;;20.97;;
81884;SDS011;71340;55.154;30.266;2023-08-31T04:13:21;34.22;;;22.20;;
81884;SDS011;71340;55.154;30.266;2023-08-31T04:15:47;31.47;;;22.13;;
81884;SDS011;71340;55.154;30.266;2023-08-31T04:18:12;32.30;;;23.90;;
81884;SDS011;71340;55.154;30.266;2023-08-31T04:20:37;32.80;;;22.03;;
81884;SDS011;71340;55.154;30.266;2023-08-31T04:23:03;33.57;;;21.60;;
81884;SDS011;71340;55.154;30.266;2023-08-31T04:25:29;28.27;;;22.25;;
81884;SDS011;71340;55.154;30.266;2023-08-31T04:27:56;35.00;;;22.60;;
81884;SDS011;71340;55.154;30.266;2023-08-31T04:30:22;33.50;;;21.30;;
81884;SDS011;71340;55.154;30.266;2023-08-31T04:32:47;33.67;;;21.63;;
81884;SDS011;71340;55.154;30.266;2023-08-31T04:35:13;30.67;;;22.00;;
81884;SDS011;71340;55.154;30.266;2023-08-31T04:37:38;26.90;;;22.67;;
81884;SDS011;71340;55.154;30.266;2023-08-31T04:40:04;28.50;;;21.43;;
81884;SDS011;71340;55.154;30.266;2023-08-31T04:42:30;27.35;;;21.95;;
81884;SDS011;71340;55.154;30.266;2023-08-31T04:44:55;27.47;;;21.83;;
81884;SDS011;71340;55.154;30.266;2023-08-31T04:47:21;30.47;;;22.10;;
81884;SDS011;71340;55.154;30.266;2023-08-31T04:49:46;29.40;;;21.60;;
81884;SDS011;71340;55.154;30.266;2023-08-31T04:52:11;27.25;;;20.92;;
81884;SDS011;71340;55.154;30.266;2023-08-31T04:54:37;27.87;;;21.03;;
81884;SDS011;71340;55.154;30.266;2023-08-31T04:57:02;28.00;;;20.57;;
81884;SDS011;71340;55.154;30.266;2023-08-31T04:59:28;32.23;;;21.80;;
81884;SDS011;71340;55.154;30.266;2023-08-31T05:01:53;28.90;;;20.17;;
81884;SDS011;71340;55.154;30.266;2023-08-31T05:04:19;26.13;;;20.47;;
81884;SDS011;71340;55.154;30.266;2023-08-31T05:06:44;30.80;;;20.20;;
81884;SDS011;71340;55.154;30.266;2023-08-31T05:09:09;34.90;;;20.50;;
81884;SDS011;71340;55.154;30.266;2023-08-31T05:11:35;27.87;;;21.13;;
81884;SDS011;71340;55.154;30.266;2023-08-31T05:14:00;26.03;;;20.27;;
81884;SDS011;71340;55.154;30.266;2023-08-31T05:16:25;32.50;;;20.40;;
81884;SDS011;71340;55.154;30.266;2023-08-31T05:18:51;27.93;;;19.80;;
81884;SDS011;71340;55.154;30.266;2023-08-31T05:21:16;26.60;;;19.83;;
81884;SDS011;71340;55.154;30.266;2023-08-31T05:23:41;27.87;;;19.53;;
81884;SDS011;71340;55.154;30.266;2023-08-31T05:26:07;25.90;;;19.57;;
81884;SDS011;71340;55.154;30.266;2023-08-31T05:28:32;26.60;;;19.97;;
81884;SDS011;71340;55.154;30.266;2023-08-31T05:30:59;24.67;;;19.77;;
81884;SDS011;71340;55.154;30.266;2023-08-31T05:33:25;26.13;;;19.58;;
81884;SDS011;71340;55.154;30.266;2023-08-31T05:35:52;24.70;;;19.40;;
81884;SDS011;71340;55.154;30.266;2023-08-31T05:38:18;27.07;;;19.63;;
81884;SDS011;71340;55.154;30.266;2023-08-31T05:40:43;24.80;;;18.80;;
81884;SDS011;71340;55.154;30.266;2023-08-31T05:43:11;31.73;;;19.42;;
81884;SDS011;71340;55.154;30.266;2023-08-31T05:45:37;24.73;;;18.33;;
81884;SDS011;71340;55.154;30.266;2023-08-31T05:48:03;24.53;;;18.07;;
81884;SDS011;71340;55.154;30.266;2023-08-31T05:50:29;21.57;;;17.97;;
81884;SDS011;71340;55.154;30.266;2023-08-31T05:52:55;24.55;;;18.48;;
81884;SDS011;71340;55.154;30.266;2023-08-31T05:55:21;24.00;;;18.00;;
81884;SDS011;71340;55.154;30.266;2023-08-31T05:57:46;25.90;;;18.50;;
81884;SDS011;71340;55.154;30.266;2023-08-31T06:00:12;24.33;;;17.90;;
81884;SDS011;71340;55.154;30.266;2023-08-31T06:02:37;21.60;;;17.33;;
81884;SDS011;71340;55.154;30.266;2023-08-31T06:05:03;25.77;;;17.87;;
81884;SDS011;71340;55.154;30.266;2023-08-31T06:07:29;25.10;;;18.60;;
81884;SDS011;71340;55.154;30.266;2023-08-31T06:09:55;27.20;;;17.63;;
81884;SDS011;71340;55.154;30.266;2023-08-31T06:12:21;24.95;;;18.88;;
81884;SDS011;71340;55.154;30.266;2023-08-31T06:14:46;21.10;;;16.97;;
81884;SDS011;71340;55.154;30.266;2023-08-31T06:17:12;24.60;;;17.83;;
81884;SDS011;71340;55.154;30.266;2023-08-31T06:19:38;27.80;;;18.00;;
81884;SDS011;71340;55.154;30.266;2023-08-31T06:22:07;24.70;;;17.60;;
81884;SDS011;71340;55.154;30.266;2023-08-31T06:24:32;25.63;;;17.97;;
81884;SDS011;71340;55.154;30.266;2023-08-31T06:26:59;23.52;;;16.88;;
81884;SDS011;71340;55.154;30.266;2023-08-31T06:29:24;29.90;;;17.45;;
81884;SDS011;71340;55.154;30.266;2023-08-31T06:31:50;25.73;;;17.27;;
81884;SDS011;71340;55.154;30.266;2023-08-31T06:34:15;24.70;;;17.50;;
81884;SDS011;71340;55.154;30.266;2023-08-31T06:36:40;23.83;;;17.47;;
81884;SDS011;71340;55.154;30.266;2023-08-31T06:39:06;24.57;;;17.30;;
81884;SDS011;71340;55.154;30.266;2023-08-31T06:41:31;25.52;;;17.75;;
81884;SDS011;71340;55.154;30.266;2023-08-31T06:43:57;24.63;;;16.73;;
81884;SDS011;71340;55.154;30.266;2023-08-31T06:46:22;24.93;;;16.83;;
81884;SDS011;71340;55.154;30.266;2023-08-31T06:48:48;29.27;;;16.40;;
81884;SDS011;71340;55.154;30.266;2023-08-31T06:51:14;28.40;;;17.77;;
81884;SDS011;71340;55.154;30.266;2023-08-31T06:53:39;29.40;;;16.60;;
81884;SDS011;71340;55.154;30.266;2023-08-31T06:56:06;25.53;;;15.97;;
81884;SDS011;71340;55.154;30.266;2023-08-31T06:58:32;25.13;;;16.60;;
81884;SDS011;71340;55.154;30.266;2023-08-31T07:00:57;26.23;;;16.43;;
81884;SDS011;71340;55.154;30.266;2023-08-31T07:03:23;24.83;;;16.93;;
81884;SDS011;71340;55.154;30.266;2023-08-31T07:05:48;21.83;;;16.63;;
81884;SDS011;71340;55.154;30.266;2023-08-31T07:08:14;22.87;;;16.60;;
81884;SDS011;71340;55.154;30.266;2023-08-31T07:10:39;21.30;;;16.03;;
81884;SDS011;71340;55.154;30.266;2023-08-31T07:13:04;22.83;;;16.20;;
81884;SDS011;71340;55.154;30.266;2023-08-31T07:15:30;21.40;;;16.53;;
81884;SDS011;71340;55.154;30.266;2023-08-31T07:17:55;23.90;;;15.37;;
81884;SDS011;71340;55.154;30.266;2023-08-31T07:20:21;24.00;;;15.77;;
81884;SDS011;71340;55.154;30.266;2023-08-31T07:22:46;23.47;;;15.90;;
81884;SDS011;71340;55.154;30.266;2023-08-31T07:25:12;19.27;;;15.90;;
81884;SDS011;71340;55.154;30.266;2023-08-31T07:27:37;25.30;;;15.83;;
81884;SDS011;71340;55.154;30.266;2023-08-31T07:30:03;20.77;;;15.43;;
81884;SDS011;71340;55.154;30.266;2023-08-31T07:32:30;21.07;;;15.90;;
81884;SDS011;71340;55.154;30.266;2023-08-31T07:34:56;21.17;;;16.02;;
81884;SDS011;71340;55.154;30.266;2023-08-31T07:37:21;25.20;;;16.17;;
81884;SDS011;71340;55.154;30.266;2023-08-31T07:39:47;21.63;;;15.67;;
81884;SDS011;71340;55.154;30.266;2023-08-31T07:42:12;26.27;;;16.97;;
81884;SDS011;71340;55.154;30.266;2023-08-31T07:44:37;26.60;;;14.95;;
81884;SDS011;71340;55.154;30.266;2023-08-31T07:47:03;19.87;;;15.57;;
81884;SDS011;71340;55.154;30.266;2023-08-31T07:49:28;27.00;;;16.33;;
81884;SDS011;71340;55.154;30.266;2023-08-31T07:51:53;19.07;;;15.10;;
81884;SDS011;71340;55.154;30.266;2023-08-31T07:54:19;20.83;;;15.90;;
81884;SDS011;71340;55.154;30.266;2023-08-31T07:56:46;20.50;;;16.23;;
81884;SDS011;71340;55.154;30.266;2023-08-31T07:59:11;21.80;;;15.43;;
81884;SDS011;71340;55.154;30.266;2023-08-31T08:01:36;23.60;;;15.53;;
81884;SDS011;71340;55.154;30.266;2023-08-31T08:04:02;23.40;;;15.10;;
81884;SDS011;71340;55.154;30.266;2023-08-31T08:06:27;22.05;;;15.02;;
81884;SDS011;71340;55.154;30.266;2023-08-31T08:08:58;21.38;;;15.63;;
81884;SDS011;71340;55.154;30.266;2023-08-31T08:11:24;25.03;;;15.40;;
81884;SDS011;71340;55.154;30.266;2023-08-31T08:13:49;19.23;;;14.03;;
81884;SDS011;71340;55.154;30.266;2023-08-31T08:16:14;21.00;;;14.80;;
81884;SDS011;71340;55.154;30.266;2023-08-31T08:18:40;20.97;;;14.43;;
81884;SDS011;71340;55.154;30.266;2023-08-31T08:21:06;20.15;;;14.63;;
81884;SDS011;71340;55.154;30.266;2023-08-31T08:23:31;18.77;;;14.43;;
81884;SDS011;71340;55.154;30.266;2023-08-31T08:25:56;20.83;;;14.63;;
81884;SDS011;71340;55.154;30.266;2023-08-31T08:28:24;20.92;;;14.15;;
81884;SDS011;71340;55.154;30.266;2023-08-31T08:31:07;20.35;;;14.88;;
81884;SDS011;71340;55.154;30.266;2023-08-31T08:33:32;26.67;;;14.37;;
81884;SDS011;71340;55.154;30.266;2023-08-31T08:35:58;18.93;;;14.40;;
81884;SDS011;71340;55.154;30.266;2023-08-31T08:38:25;22.03;;;14.90;;
81884;SDS011;71340;55.154;30.266;2023-08-31T08:40:50;20.03;;;13.97;;
81884;SDS011;71340;55.154;30.266;2023-08-31T08:43:16;20.13;;;13.00;;
81884;SDS011;71340;55.154;30.266;2023-08-31T08:45:49;20.50;;;13.02;;
81884;SDS011;71340;55.154;30.266;2023-08-31T08:48:16;18.42;;;13.95;;
81884;SDS011;71340;55.154;30.266;2023-08-31T08:50:43;24.88;;;13.90;;
81884;SDS011;71340;55.154;30.266;2023-08-31T08:53:08;18.63;;;13.77;;
81884;SDS011;71340;55.154;30.266;2023-08-31T08:55:35;20.15;;;14.00;;
81884;SDS011;71340;55.154;30.266;2023-08-31T08:58:01;15.77;;;12.40;;
81884;SDS011;71340;55.154;30.266;2023-08-31T09:00:28;15.95;;;13.70;;
81884;SDS011;71340;55.154;30.266;2023-08-31T09:02:55;18.95;;;12.52;;
81884;SDS011;71340;55.154;30.266;2023-08-31T09:05:21;17.43;;;12.07;;
81884;SDS011;71340;55.154;30.266;2023-08-31T09:08:00;17.48;;;11.95;;
81884;SDS011;71340;55.154;30.266;2023-08-31T09:10:36;14.70;;;12.32;;
81884;SDS011;71340;55.154;30.266;2023-08-31T09:13:07;16.42;;;12.43;;
81884;SDS011;71340;55.154;30.266;2023-08-31T09:15:47;18.60;;;12.10;;
81884;SDS011;71340;55.154;30.266;2023-08-31T09:18:17;15.27;;;12.05;;
81884;SDS011;71340;55.154;30.266;2023-08-31T09:20:48;16.92;;;12.75;;
81884;SDS011;71340;55.154;30.266;2023-08-31T09:23:15;16.63;;;12.13;;
81884;SDS011;71340;55.154;30.266;2023-08-31T09:25:45;14.85;;;11.93;;
81884;SDS011;71340;55.154;30.266;2023-08-31T09:28:15;15.05;;;11.60;;
81884;SDS011;71340;55.154;30.266;2023-08-31T09:30:42;467.20;;;90.30;;
81884;SDS011;71340;55.154;30.266;2023-08-31T09:33:08;162.07;;;35.83;;
81884;SDS011;71340;55.154;30.266;2023-08-31T09:35:56;59.47;;;17.15;;
81884;SDS011;71340;55.154;30.266;2023-08-31T09:38:22;19.60;;;12.27;;
81884;SDS011;71340;55.154;30.266;2023-08-31T09:40:47;29.73;;;14.37;;
81884;SDS011;71340;55.154;30.266;2023-08-31T09:43:34;38.63;;;15.20;;
81884;SDS011;71340;55.154;30.266;2023-08-31T09:45:58;63.08;;;18.70;;
81884;SDS011;71340;55.154;30.266;2023-08-31T09:48:25;16.15;;;11.73;;
81884;SDS011;71340;55.154;30.266;2023-08-31T09:50:52;15.70;;;10.73;;
81884;SDS011;71340;55.154;30.266;2023-08-31T09:53:19;18.05;;;11.38;;
81884;SDS011;71340;55.154;30.266;2023-08-31T09:55:46;15.57;;;11.32;;
81884;SDS011;71340;55.154;30.266;2023-08-31T09:58:17;19.33;;;11.77;;
81884;SDS011;71340;55.154;30.266;2023-08-31T10:00:44;19.65;;;11.00;;
81884;SDS011;71340;55.154;30.266;2023-08-31T10:03:10;13.40;;;10.55;;
81884;SDS011;71340;55.154;30.266;2023-08-31T10:05:40;15.83;;;10.77;;
81884;SDS011;71340;55.154;30.266;2023-08-31T10:08:09;15.07;;;11.00;;
81884;SDS011;71340;55.154;30.266;2023-08-31T10:10:35;13.32;;;10.73;;
81884;SDS011;71340;55.154;30.266;2023-08-31T10:13:03;16.42;;;10.57;;
81884;SDS011;71340;55.154;30.266;2023-08-31T10:15:31;15.83;;;11.03;;
81884;SDS011;71340;55.154;30.266;2023-08-31T10:18:04;12.63;;;11.02;;
81884;SDS011;71340;55.154;30.266;2023-08-31T10:20:32;18.17;;;11.73;;
81884;SDS011;71340;55.154;30.266;2023-08-31T10:22:59;20.63;;;10.03;;
81884;SDS011;71340;55.154;30.266;2023-08-31T10:25:59;15.55;;;9.93;;
81884;SDS011;71340;55.154;30.266;2023-08-31T10:28:23;17.83;;;10.23;;
81884;SDS011;71340;55.154;30.266;2023-08-31T10:31:02;18.63;;;10.87;;
81884;SDS011;71340;55.154;30.266;2023-08-31T10:33:37;17.67;;;10.32;;
81884;SDS011;71340;55.154;30.266;2023-08-31T10:36:08;18.00;;;10.18;;
81884;SDS011;71340;55.154;30.266;2023-08-31T10:38:36;15.32;;;10.25;;
81884;SDS011;71340;55.154;30.266;2023-08-31T10:49:02;15.67;;;10.23;;
81884;SDS011;71340;55.154;30.266;2023-08-31T10:51:46;14.90;;;10.27;;
81884;SDS011;71340;55.154;30.266;2023-08-31T10:54:19;13.15;;;9.32;;
81884;SDS011;71340;55.154;30.266;2023-08-31T10:56:51;13.90;;;9.57;;
81884;SDS011;71340;55.154;30.266;2023-08-31T10:59:23;13.48;;;8.88;;
81884;SDS011;71340;55.154;30.266;2023-08-31T11:01:59;16.05;;;9.18;;
81884;SDS011;71340;55.154;30.266;2023-08-31T11:04:28;11.43;;;9.25;;
81884;SDS011;71340;55.154;30.266;2023-08-31T11:09:42;13.75;;;8.98;;
81884;SDS011;71340;55.154;30.266;2023-08-31T11:12:09;14.27;;;8.43;;
81884;SDS011;71340;55.154;30.266;2023-08-31T11:14:35;10.83;;;8.30;;
81884;SDS011;71340;55.154;30.266;2023-08-31T11:17:00;11.85;;;8.20;;
81884;SDS011;71340;55.154;30.266;2023-08-31T11:19:27;11.50;;;8.10;;
81884;SDS011;71340;55.154;30.266;2023-08-31T11:21:53;12.10;;;8.55;;
81884;SDS011;71340;55.154;30.266;2023-08-31T11:24:19;12.43;;;8.80;;
81884;SDS011;71340;55.154;30.266;2023-08-31T11:26:47;15.70;;;8.77;;
81884;SDS011;71340;55.154;30.266;2023-08-31T11:29:14;13.15;;;8.88;;
81884;SDS011;71340;55.154;30.266;2023-08-31T11:31:40;14.47;;;8.90;;
81884;SDS011;71340;55.154;30.266;2023-08-31T11:34:14;10.50;;;8.10;;
81884;SDS011;71340;55.154;30.266;2023-08-31T11:36:45;11.98;;;7.95;;
81884;SDS011;71340;55.154;30.266;2023-08-31T11:39:11;13.07;;;8.73;;
81884;SDS011;71340;55.154;30.266;2023-08-31T11:41:38;10.30;;;8.37;;
81884;SDS011;71340;55.154;30.266;2023-08-31T11:44:10;13.98;;;8.60;;
81884;SDS011;71340;55.154;30.266;2023-08-31T11:46:37;13.30;;;8.48;;
81884;SDS011;71340;55.154;30.266;2023-08-31T11:49:04;14.53;;;8.87;;
81884;SDS011;71340;55.154;30.266;2023-08-31T11:51:31;13.80;;;8.27;;
81884;SDS011;71340;55.154;30.266;2023-08-31T11:53:57;12.75;;;8.00;;
81884;SDS011;71340;55.154;30.266;2023-08-31T11:56:24;12.40;;;8.57;;
81884;SDS011;71340;55.154;30.266;2023-08-31T11:58:50;13.87;;;8.20;;
81884;SDS011;71340;55.154;30.266;2023-08-31T12:01:22;9.73;;;7.83;;
81884;SDS011;71340;55.154;30.266;2023-08-31T12:03:48;9.98;;;8.27;;
81884;SDS011;71340;55.154;30.266;2023-08-31T12:06:16;14.27;;;8.60;;
81884;SDS011;71340;55.154;30.266;2023-08-31T12:08:47;17.60;;;8.00;;
81884;SDS011;71340;55.154;30.266;2023-08-31T12:11:14;16.33;;;8.38;;
81884;SDS011;71340;55.154;30.266;2023-08-31T12:13:40;11.57;;;8.27;;
81884;SDS011;71340;55.154;30.266;2023-08-31T12:16:11;12.40;;;8.20;;
81884;SDS011;71340;55.154;30.266;2023-08-31T12:18:37;12.33;;;8.20;;
81884;SDS011;71340;55.154;30.266;2023-08-31T12:21:02;12.15;;;7.55;;
81884;SDS011;71340;55.154;30.266;2023-08-31T12:23:29;10.70;;;7.07;;
81884;SDS011;71340;55.154;30.266;2023-08-31T12:25:55;10.53;;;7.47;;
81884;SDS011;71340;55.154;30.266;2023-08-31T12:28:21;12.97;;;7.87;;
81884;SDS011;71340;55.154;30.266;2023-08-31T12:30:52;14.85;;;8.23;;
81884;SDS011;71340;55.154;30.266;2023-08-31T12:33:20;12.30;;;7.20;;
81884;SDS011;71340;55.154;30.266;2023-08-31T12:35:46;13.43;;;8.17;;
81884;SDS011;71340;55.154;30.266;2023-08-31T12:38:12;9.90;;;7.90;;
81884;SDS011;71340;55.154;30.266;2023-08-31T12:40:38;15.10;;;8.37;;
81884;SDS011;71340;55.154;30.266;2023-08-31T12:43:04;12.38;;;8.10;;
81884;SDS011;71340;55.154;30.266;2023-08-31T12:45:30;10.95;;;8.55;;
81884;SDS011;71340;55.154;30.266;2023-08-31T12:48:05;13.07;;;9.07;;
81884;SDS011;71340;55.154;30.266;2023-08-31T12:50:31;13.00;;;8.23;;
81884;SDS011;71340;55.154;30.266;2023-08-31T12:52:56;15.30;;;8.83;;
81884;SDS011;71340;55.154;30.266;2023-08-31T12:55:22;17.03;;;9.00;;
81884;SDS011;71340;55.154;30.266;2023-08-31T12:57:48;11.15;;;9.27;;
81884;SDS011;71340;55.154;30.266;2023-08-31T13:00:14;13.60;;;9.17;;
81884;SDS011;71340;55.154;30.266;2023-08-31T13:02:40;14.23;;;8.57;;
81884;SDS011;71340;55.154;30.266;2023-08-31T13:05:08;15.07;;;8.67;;
81884;SDS011;71340;55.154;30.266;2023-08-31T13:07:35;18.80;;;9.02;;
81884;SDS011;71340;55.154;30.266;2023-08-31T13:10:01;12.95;;;8.55;;
81884;SDS011;71340;55.154;30.266;2023-08-31T13:12:29;17.55;;;8.60;;
81884;SDS011;71340;55.154;30.266;2023-08-31T13:14:55;17.13;;;8.73;;
81884;SDS011;71340;55.154;30.266;2023-08-31T13:17:20;14.30;;;8.77;;
81884;SDS011;71340;55.154;30.266;2023-08-31T13:19:46;12.57;;;8.23;;
81884;SDS011;71340;55.154;30.266;2023-08-31T13:22:11;12.97;;;8.07;;
81884;SDS011;71340;55.154;30.266;2023-08-31T13:24:40;15.47;;;8.33;;
81884;SDS011;71340;55.154;30.266;2023-08-31T13:27:05;13.65;;;9.32;;
81884;SDS011;71340;55.154;30.266;2023-08-31T13:29:31;13.13;;;9.13;;
81884;SDS011;71340;55.154;30.266;2023-08-31T13:32:17;18.77;;;8.63;;
81884;SDS011;71340;55.154;30.266;2023-08-31T13:34:42;13.60;;;8.90;;
81884;SDS011;71340;55.154;30.266;2023-08-31T15:48:07;11.88;;;7.15;;
81884;SDS011;71340;55.154;30.266;2023-08-31T15:50:33;19.83;;;7.13;;
81884;SDS011;71340;55.154;30.266;2023-08-31T15:52:58;11.73;;;7.30;;
81884;SDS011;71340;55.154;30.266;2023-08-31T15:55:24;11.40;;;7.27;;
81884;SDS011;71340;55.154;30.266;2023-08-31T15:57:49;15.27;;;7.17;;
81884;SDS011;71340;55.154;30.266;2023-08-31T16:00:14;11.40;;;7.43;;
81884;SDS011;71340;55.154;30.266;2023-08-31T16:02:41;18.58;;;7.28;;
81884;SDS011;71340;55.154;30.266;2023-08-31T16:05:06;13.83;;;7.67;;
81884;SDS011;71340;55.154;30.266;2023-08-31T16:07:33;18.23;;;6.93;;
81884;SDS011;71340;55.154;30.266;2023-08-31T16:09:59;9.52;;;7.20;;
81884;SDS011;71340;55.154;30.266;2023-08-31T16:12:25;13.87;;;7.23;;
81884;SDS011;71340;55.154;30.266;2023-08-31T16:14:50;13.37;;;7.17;;
81884;SDS011;71340;55.154;30.266;2023-08-31T16:17:16;14.75;;;7.63;;
81884;SDS011;71340;55.154;30.266;2023-08-31T16:19:42;18.63;;;7.32;;
81884;SDS011;71340;55.154;30.266;2023-08-31T16:22:07;12.53;;;7.43;;
81884;SDS011;71340;55.154;30.266;2023-08-31T16:24:33;12.87;;;7.30;;
81884;SDS011;71340;55.154;30.266;2023-08-31T16:26:58;13.47;;;7.23;;
81884;SDS011;71340;55.154;30.266;2023-08-31T16:29:24;13.60;;;7.13;;
81884;SDS011;71340;55.154;30.266;2023-08-31T16:31:49;10.27;;;6.72;;
81884;SDS011;71340;55.154;30.266;2023-08-31T16:34:15;10.07;;;7.33;;
81884;SDS011;71340;55.154;30.266;2023-08-31T16:36:40;19.23;;;7.40;;
81884;SDS011;71340;55.154;30.266;2023-08-31T16:39:06;11.50;;;7.17;;
81884;SDS011;71340;55.154;30.266;2023-08-31T16:41:32;12.95;;;7.32;;